Terminal Aerodrome Forecast
Issued by NWS Charleston, WV

Current Version | Previous Version | Text Only | Print | Product List | Glossary Off
Versions: 1 2 3 4 5 6 7 8 9 10 11 12 13 14 15 16 17 18 19 20 21 22

459
FTUS41 KRLX 212012 AAA
TAFPKB
TAF AMD
KPKB 212012Z 2120/2218 24008KT P6SM SCT050 SCT080
      TEMPO 2120/2122 -SHRA BKN080
     FM220100 21002KT P6SM SCT080
     FM220700 00000KT 6SM HZ SCT100
     FM221300 21003KT P6SM SCT100 BKN250
     FM221700 22005KT P6SM BKN150=

USA.gov is the U.S. government's official web portal to all federal, state and local government web resources and services.